createdAt,value
2023-04-10T00:01:07.864Z,9.40
2023-04-10T00:03:34.583Z,9.40
2023-04-10T00:06:01.370Z,9.40
2023-04-10T00:08:27.995Z,9.40
2023-04-10T00:10:54.732Z,9.50
2023-04-10T00:13:21.374Z,8.70
2023-04-10T00:15:48.532Z,9.40
2023-04-10T00:18:15.396Z,9.40
2023-04-10T00:20:42.656Z,9.40
2023-04-10T00:23:09.674Z,9.40
2023-04-10T00:25:36.294Z,9.40
2023-04-10T00:28:02.903Z,9.40
2023-04-10T00:30:29.534Z,9.40
2023-04-10T00:32:56.191Z,9.40
2023-04-10T00:35:22.828Z,9.40
2023-04-10T00:37:50.941Z,9.20
2023-04-10T00:40:17.559Z,9.20
2023-04-10T00:42:44.171Z,9.20
2023-04-10T00:45:11.541Z,9.20
2023-04-10T00:47:38.341Z,9.20
2023-04-10T00:50:06.373Z,9.20
2023-04-10T00:52:33.318Z,9.20
2023-04-10T00:55:00.071Z,9.10
2023-04-10T00:57:27.500Z,9.10
2023-04-10T00:59:54.460Z,9.20
2023-04-10T01:06:16.515Z,9.20
2023-04-10T01:09:04.757Z,9.20
2023-04-10T01:11:48.139Z,9.30
2023-04-10T01:14:37.930Z,9.20
2023-04-10T01:17:08.560Z,9.10
2023-04-10T01:20:16.709Z,9.10
2023-04-10T01:23:12.342Z,9.10
2023-04-10T01:25:51.075Z,9.10
2023-04-10T01:28:35.990Z,9.10
2023-04-10T01:31:03.442Z,9.10
2023-04-10T01:33:45.497Z,9.00
2023-04-10T01:36:13.093Z,9.00
2023-04-10T01:38:44.120Z,8.10
2023-04-10T01:41:10.730Z,9.10
2023-04-10T01:43:40.419Z,9.10
2023-04-10T01:46:07.456Z,9.10
2023-04-10T01:48:34.375Z,9.10
2023-04-10T01:51:06.958Z,9.00
2023-04-10T01:53:35.714Z,9.00
2023-04-10T01:56:03.223Z,8.90
2023-04-10T01:58:30.560Z,8.80
2023-04-10T02:00:57.173Z,8.80
2023-04-10T02:03:24.040Z,8.80
2023-04-10T02:06:17.824Z,8.80
2023-04-10T02:08:53.750Z,8.80
2023-04-10T02:11:26.408Z,8.80
2023-04-10T02:13:54.008Z,8.80
2023-04-10T02:16:22.714Z,8.80
2023-04-10T02:18:50.580Z,8.90
2023-04-10T02:21:17.405Z,8.80
2023-04-10T02:23:44.233Z,8.80
2023-04-10T02:26:10.926Z,8.70
2023-04-10T02:28:40.657Z,8.80
2023-04-10T02:31:07.749Z,8.80
2023-04-10T02:33:34.399Z,8.70
2023-04-10T02:36:01.716Z,8.80
2023-04-10T02:38:28.346Z,8.70
2023-04-10T02:40:54.979Z,8.70
2023-04-10T02:43:21.612Z,8.80
2023-04-10T02:45:48.272Z,8.80
2023-04-10T02:48:15.008Z,8.80
2023-04-10T02:50:46.045Z,8.80
2023-04-10T02:53:15.564Z,8.80
2023-04-10T02:55:42.620Z,8.80
2023-04-10T02:58:09.674Z,8.80
2023-04-10T03:00:36.346Z,8.80
2023-04-10T03:03:03.169Z,8.90
2023-04-10T03:05:30.294Z,8.90
2023-04-10T03:07:56.930Z,8.90
2023-04-10T03:10:24.733Z,8.90
2023-04-10T03:12:51.378Z,8.90
2023-04-10T03:15:18.263Z,8.90
2023-04-10T03:17:44.971Z,8.80
2023-04-10T03:20:12.096Z,8.80
2023-04-10T03:22:39.643Z,8.70
2023-04-10T03:25:06.767Z,8.70
2023-04-10T03:27:34.869Z,8.70
2023-04-10T03:30:02.690Z,8.60
2023-04-10T03:32:31.162Z,8.60
2023-04-10T03:34:59.144Z,8.70
2023-04-10T03:37:27.550Z,8.60
2023-04-10T03:39:54.201Z,8.70
2023-04-10T03:42:20.797Z,8.70
2023-04-10T03:44:47.453Z,8.70
2023-04-10T03:47:14.109Z,8.70
2023-04-10T03:49:40.747Z,8.70
2023-04-10T03:52:07.414Z,8.70
2023-04-10T03:54:34.038Z,8.60
2023-04-10T03:57:01.543Z,8.70
2023-04-10T03:59:37.926Z,8.60
2023-04-10T04:02:06.995Z,8.20
2023-04-10T04:04:33.755Z,8.60
2023-04-10T04:07:00.575Z,8.70
2023-04-10T04:09:27.228Z,8.70
2023-04-10T04:11:53.850Z,8.60
2023-04-10T04:14:20.556Z,8.80
2023-04-10T04:16:47.371Z,8.70
2023-04-10T04:19:14.089Z,8.70
2023-04-10T04:21:40.674Z,8.60
2023-04-10T04:24:07.388Z,8.60
2023-04-10T04:26:34.150Z,8.60
2023-04-10T04:29:00.760Z,8.60
2023-04-10T04:31:32.412Z,8.60
2023-04-10T04:34:00.009Z,9.70
2023-04-10T04:36:27.747Z,8.50
2023-04-10T04:38:54.954Z,8.40
2023-04-10T04:41:22.072Z,7.10
2023-04-10T04:43:49.456Z,8.40
2023-04-10T04:46:16.155Z,8.50
2023-04-10T04:48:42.816Z,8.50
2023-04-10T04:51:09.458Z,8.40
2023-04-10T04:53:36.856Z,8.50
2023-04-10T04:56:03.691Z,8.40
2023-04-10T04:58:30.359Z,8.40
2023-04-10T05:00:57.026Z,8.40
2023-04-10T05:03:23.907Z,8.40
2023-04-10T05:05:50.705Z,8.50
2023-04-10T05:08:17.445Z,8.50
2023-04-10T05:10:44.072Z,8.50
2023-04-10T05:13:10.855Z,8.50
2023-04-10T05:15:37.813Z,8.50
2023-04-10T05:18:04.725Z,8.50
2023-04-10T05:20:31.504Z,8.60
2023-04-10T05:22:58.214Z,8.70
2023-04-10T05:25:24.920Z,8.70
2023-04-10T05:27:51.523Z,8.80
2023-04-10T05:30:18.216Z,8.80
2023-04-10T05:32:46.145Z,8.80
2023-04-10T05:35:12.886Z,8.80
2023-04-10T05:37:39.475Z,8.80
2023-04-10T05:40:07.303Z,8.80
2023-04-10T05:42:33.899Z,8.90
2023-04-10T05:45:00.513Z,8.90
2023-04-10T05:47:27.210Z,9.00
2023-04-10T05:49:53.958Z,9.10
2023-04-10T05:52:20.677Z,9.40
2023-04-10T05:54:47.329Z,9.80
2023-04-10T05:57:14.055Z,10.00
2023-04-10T05:59:41.061Z,10.20
2023-04-10T06:02:07.773Z,10.80
2023-04-10T06:04:34.672Z,11.60
2023-04-10T06:07:01.637Z,12.00
2023-04-10T06:09:28.306Z,12.00
2023-04-10T06:11:54.924Z,12.10
2023-04-10T06:14:21.518Z,11.80
2023-04-10T06:16:48.148Z,11.10
2023-04-10T06:19:14.796Z,10.60
2023-04-10T06:21:41.378Z,10.20
2023-04-10T06:24:07.991Z,10.20
2023-04-10T06:26:34.656Z,10.10
2023-04-10T06:29:01.318Z,9.80
2023-04-10T06:31:28.126Z,9.80
2023-04-10T06:33:55.655Z,9.80
2023-04-10T06:36:22.441Z,9.90
2023-04-10T06:38:49.018Z,9.90
2023-04-10T06:41:15.756Z,9.90
2023-04-10T06:43:42.358Z,10.00
2023-04-10T06:46:08.988Z,10.00
2023-04-10T06:48:35.714Z,10.10
2023-04-10T06:51:02.594Z,10.00
2023-04-10T06:53:29.556Z,10.00
2023-04-10T06:55:56.933Z,10.00
2023-04-10T06:58:24.480Z,10.10
2023-04-10T07:00:51.169Z,11.00
2023-04-10T07:03:18.057Z,10.20
2023-04-10T07:05:44.704Z,10.30
2023-04-10T07:08:11.452Z,10.30
2023-04-10T07:10:38.135Z,10.40
2023-04-10T07:13:04.746Z,10.40
2023-04-10T07:15:31.495Z,10.40
2023-04-10T07:17:58.206Z,10.60
2023-04-10T07:20:24.982Z,10.60
2023-04-10T07:22:51.642Z,10.50
2023-04-10T07:25:18.469Z,10.70
2023-04-10T07:27:45.143Z,10.70
2023-04-10T07:30:13.577Z,10.80
2023-04-10T07:32:42.128Z,11.00
2023-04-10T07:35:09.440Z,11.00
2023-04-10T07:37:36.164Z,11.00
2023-04-10T07:40:03.252Z,11.10
2023-04-10T07:42:30.368Z,11.20
2023-04-10T07:44:57.355Z,11.30
2023-04-10T07:47:24.422Z,11.40
2023-04-10T07:49:51.174Z,11.60
2023-04-10T07:52:17.870Z,11.60
2023-04-10T07:54:44.613Z,11.70
2023-04-10T07:57:11.251Z,11.80
2023-04-10T07:59:37.841Z,12.00
2023-04-10T08:02:04.636Z,12.00
2023-04-10T08:04:31.763Z,12.20
2023-04-10T08:06:58.601Z,12.30
2023-04-10T08:09:25.325Z,12.40
2023-04-10T08:11:51.979Z,12.60
2023-04-10T08:14:18.783Z,12.60
2023-04-10T08:16:45.630Z,12.70
2023-04-10T08:19:12.445Z,12.80
2023-04-10T08:21:39.066Z,12.90
2023-04-10T08:24:05.847Z,13.00
2023-04-10T08:26:32.520Z,13.10
2023-04-10T08:29:00.669Z,13.30
2023-04-10T08:31:28.857Z,13.30
2023-04-10T08:33:56.780Z,13.40
2023-04-10T08:36:23.941Z,13.50
2023-04-10T08:38:50.616Z,13.60
2023-04-10T08:41:19.009Z,13.70
2023-04-10T08:43:46.243Z,13.80
2023-04-10T08:46:14.396Z,12.80
2023-04-10T08:49:03.395Z,13.70
2023-04-10T08:51:41.425Z,13.80
2023-04-10T08:54:14.192Z,13.80
2023-04-10T08:56:46.906Z,13.80
2023-04-10T08:59:13.720Z,13.90
2023-04-10T09:01:41.013Z,14.00
2023-04-10T09:04:07.991Z,14.20
2023-04-10T09:06:34.750Z,14.30
2023-04-10T09:12:01.074Z,14.40
2023-04-10T09:14:34.915Z,14.50
2023-04-10T09:17:22.590Z,14.60
2023-04-10T09:19:55.124Z,14.60
2023-04-10T09:22:32.916Z,14.80
2023-04-10T09:25:00.616Z,14.90
2023-04-10T09:27:38.607Z,15.00
2023-04-10T09:30:07.216Z,15.20
2023-04-10T09:32:49.273Z,15.30
2023-04-10T09:35:16.107Z,15.40
2023-04-10T09:37:45.830Z,15.50
2023-04-10T09:40:24.384Z,15.60
2023-04-10T09:42:51.502Z,15.60
2023-04-10T09:45:20.405Z,15.60
2023-04-10T09:48:08.163Z,15.80
2023-04-10T09:50:40.653Z,15.80
2023-04-10T09:53:08.896Z,15.20
2023-04-10T09:55:36.967Z,16.00
2023-04-10T09:58:05.513Z,16.00
2023-04-10T10:00:38.685Z,16.20
2023-04-10T10:03:09.261Z,16.20
2023-04-10T10:05:39.230Z,16.20
2023-04-10T10:08:06.774Z,16.30
2023-04-10T10:10:33.698Z,16.40
2023-04-10T10:13:02.574Z,16.50
2023-04-10T10:15:47.960Z,16.50
2023-04-10T10:18:43.888Z,16.40
2023-04-10T10:21:11.017Z,16.40
2023-04-10T10:23:38.432Z,16.50
2023-04-10T10:26:06.675Z,16.60
2023-04-10T10:28:34.703Z,16.60
2023-04-10T10:31:03.417Z,16.70
2023-04-10T10:33:30.810Z,16.90
2023-04-10T10:36:00.908Z,17.00
2023-04-10T10:38:28.248Z,17.20
2023-04-10T10:41:21.371Z,17.30
2023-04-10T10:44:00.329Z,17.30
2023-04-10T10:46:39.727Z,17.40
2023-04-10T10:49:06.351Z,17.30
2023-04-10T10:51:50.574Z,17.40
2023-04-10T10:54:32.925Z,17.20
2023-04-10T10:57:00.628Z,17.00
2023-04-10T10:59:45.908Z,17.10
2023-04-10T11:02:16.775Z,18.00
2023-04-10T11:04:45.784Z,17.30
2023-04-10T11:07:13.457Z,17.40
2023-04-10T11:09:54.398Z,17.40
2023-04-10T11:12:24.322Z,16.30
2023-04-10T11:15:01.972Z,17.40
2023-04-10T11:17:52.032Z,17.40
2023-04-10T11:20:21.954Z,17.50
2023-04-10T11:23:12.088Z,17.70
2023-04-10T11:25:55.718Z,17.80
2023-04-10T11:28:39.535Z,17.80
2023-04-10T11:31:19.957Z,17.80
2023-04-10T11:34:13.094Z,17.80
2023-04-10T11:36:42.560Z,18.00
2023-04-10T11:39:13.191Z,18.10
2023-04-10T11:41:44.848Z,19.00
2023-04-10T11:44:13.660Z,18.40
2023-04-10T11:46:48.281Z,18.40
2023-04-10T11:49:23.343Z,18.50
2023-04-10T11:51:51.307Z,18.50
2023-04-10T11:54:23.400Z,19.10
2023-04-10T11:56:58.799Z,18.50
2023-04-10T11:59:25.960Z,18.40
2023-04-10T12:01:55.850Z,18.50
2023-04-10T12:04:23.868Z,18.60
2023-04-10T12:06:52.795Z,18.60
2023-04-10T12:09:21.260Z,18.60
2023-04-10T12:11:52.052Z,19.30
2023-04-10T12:14:23.016Z,18.80
2023-04-10T12:16:50.548Z,18.70
2023-04-10T12:19:18.006Z,18.80
2023-04-10T12:21:45.787Z,18.90
2023-04-10T12:24:33.721Z,18.80
2023-04-10T12:27:01.457Z,20.20
2023-04-10T12:29:28.200Z,18.70
2023-04-10T12:31:54.869Z,18.70
2023-04-10T12:34:21.486Z,18.70
2023-04-10T12:36:53.876Z,18.60
2023-04-10T12:39:25.006Z,18.60
2023-04-10T12:41:51.929Z,18.50
2023-04-10T12:44:19.258Z,18.60
2023-04-10T12:46:46.112Z,18.60
2023-04-10T12:49:15.062Z,18.60
2023-04-10T12:51:46.395Z,18.80
2023-04-10T12:54:31.128Z,18.80
2023-04-10T12:56:58.253Z,18.80
2023-04-10T12:59:26.578Z,18.80
2023-04-10T13:01:53.878Z,18.80
2023-04-10T13:04:20.823Z,19.00
2023-04-10T13:06:48.919Z,18.90
2023-04-10T13:09:17.538Z,19.10
2023-04-10T13:11:45.260Z,19.10
2023-04-10T13:14:12.956Z,19.10
2023-04-10T13:16:39.769Z,19.20
2023-04-10T13:19:06.547Z,19.10
2023-04-10T13:21:33.182Z,19.00
2023-04-10T13:23:59.818Z,18.90
2023-04-10T13:26:26.441Z,19.00
2023-04-10T13:28:53.292Z,19.00
2023-04-10T13:31:20.517Z,19.00
2023-04-10T13:33:48.254Z,18.80
2023-04-10T13:36:15.459Z,18.70
2023-04-10T13:38:42.364Z,18.70
2023-04-10T13:41:09.334Z,18.60
2023-04-10T13:43:36.772Z,18.70
2023-04-10T13:46:03.645Z,18.70
2023-04-10T13:48:40.205Z,18.60
2023-04-10T13:51:08.475Z,18.70
2023-04-10T13:53:35.604Z,18.60
2023-04-10T13:56:02.497Z,18.60
2023-04-10T13:58:31.849Z,18.70
2023-04-10T14:00:58.903Z,18.70
2023-04-10T14:03:25.703Z,18.70
2023-04-10T14:05:52.923Z,18.70
2023-04-10T14:08:19.892Z,18.70
2023-04-10T14:10:51.400Z,18.80
2023-04-10T14:13:18.618Z,18.80
2023-04-10T14:15:45.378Z,19.00
2023-04-10T14:18:12.336Z,19.00
2023-04-10T14:20:39.111Z,19.10
2023-04-10T14:23:05.834Z,19.10
2023-04-10T14:25:32.520Z,19.20
2023-04-10T14:27:59.779Z,19.20
2023-04-10T14:30:30.868Z,19.30
2023-04-10T14:32:57.708Z,19.40
2023-04-10T14:35:24.506Z,19.40
2023-04-10T14:37:51.107Z,19.40
2023-04-10T14:40:17.752Z,19.20
2023-04-10T14:42:44.392Z,19.30
2023-04-10T14:45:11.161Z,19.20
2023-04-10T14:47:37.868Z,19.20
2023-04-10T14:50:04.834Z,19.40
2023-04-10T14:52:31.578Z,19.50
2023-04-10T14:54:58.200Z,19.60
2023-04-10T14:57:24.843Z,19.80
2023-04-10T14:59:51.493Z,19.80
2023-04-10T15:02:18.112Z,19.60
2023-04-10T15:04:44.760Z,19.50
2023-04-10T15:07:12.883Z,19.50
2023-04-10T15:09:40.764Z,19.50
2023-04-10T15:12:07.606Z,19.30
2023-04-10T15:14:34.442Z,19.20
2023-04-10T15:17:01.155Z,19.00
2023-04-10T15:19:27.862Z,19.30
2023-04-10T15:21:55.382Z,19.30
2023-04-10T15:24:22.040Z,19.30
2023-04-10T15:26:48.701Z,19.30
2023-04-10T15:29:15.353Z,19.30
2023-04-10T15:31:42.029Z,19.20
2023-04-10T15:34:09.120Z,19.10
2023-04-10T15:36:35.760Z,19.00
2023-04-10T15:39:06.262Z,19.00
2023-04-10T15:41:33.258Z,19.00
2023-04-10T15:44:00.201Z,19.00
2023-04-10T15:46:27.180Z,19.20
2023-04-10T15:48:53.930Z,19.30
2023-04-10T15:51:21.346Z,19.30
2023-04-10T15:53:48.019Z,19.60
2023-04-10T15:56:16.055Z,19.70
2023-04-10T15:58:42.728Z,19.90
2023-04-10T16:01:09.422Z,19.80
2023-04-10T16:03:36.541Z,19.40
2023-04-10T16:06:03.641Z,19.30
2023-04-10T16:08:30.365Z,19.10
2023-04-10T16:10:57.062Z,18.90
2023-04-10T16:13:23.706Z,18.90
2023-04-10T16:15:50.522Z,19.40
2023-04-10T16:18:17.187Z,19.50
2023-04-10T16:20:44.136Z,19.30
2023-04-10T16:23:10.794Z,18.90
2023-04-10T16:25:37.405Z,18.50
2023-04-10T16:28:07.679Z,18.20
2023-04-10T16:30:35.549Z,18.00
2023-04-10T16:33:03.982Z,18.00
2023-04-10T16:35:30.853Z,17.90
2023-04-10T16:37:57.657Z,17.90
2023-04-10T16:40:27.650Z,17.90
2023-04-10T16:42:54.310Z,17.90
2023-04-10T16:45:20.919Z,18.00
2023-04-10T16:47:47.688Z,18.10
2023-04-10T16:50:14.364Z,18.20
2023-04-10T16:52:41.221Z,18.20
2023-04-10T16:55:08.216Z,18.10
2023-04-10T16:57:34.847Z,18.10
2023-04-10T17:00:01.863Z,18.00
2023-04-10T17:02:30.288Z,18.00
2023-04-10T17:04:57.030Z,18.00
2023-04-10T17:07:24.050Z,18.00
2023-04-10T17:09:51.274Z,17.90
2023-04-10T17:12:17.951Z,16.80
2023-04-10T17:14:44.866Z,17.70
2023-04-10T17:17:11.620Z,17.50
2023-04-10T17:19:38.621Z,17.30
2023-04-10T17:22:06.867Z,17.30
2023-04-10T17:24:33.458Z,17.20
2023-04-10T17:27:01.981Z,17.00
2023-04-10T17:29:28.567Z,17.80
2023-04-10T17:31:55.288Z,17.00
2023-04-10T17:34:21.894Z,17.00
2023-04-10T17:36:49.648Z,17.10
2023-04-10T17:39:16.352Z,17.00
2023-04-10T17:41:43.163Z,16.90
2023-04-10T17:44:10.586Z,16.90
2023-04-10T17:46:37.209Z,16.90
2023-04-10T17:49:04.542Z,16.80
2023-04-10T17:51:31.696Z,16.70
2023-04-10T17:53:58.420Z,15.80
2023-04-10T17:56:25.316Z,16.70
2023-04-10T17:58:54.818Z,16.60
2023-04-10T18:01:29.350Z,16.60
2023-04-10T18:04:00.185Z,16.50
2023-04-10T18:06:27.528Z,16.50
2023-04-10T18:08:55.864Z,16.40
2023-04-10T18:11:23.906Z,16.50
2023-04-10T18:13:50.585Z,16.50
2023-04-10T18:16:20.314Z,16.30
2023-04-10T18:18:47.089Z,16.10
2023-04-10T18:21:13.821Z,15.80
2023-04-10T18:23:40.626Z,15.70
2023-04-10T18:26:07.626Z,15.40
2023-04-10T18:28:35.907Z,15.30
2023-04-10T18:31:02.683Z,15.20
2023-04-10T18:33:29.415Z,15.10
2023-04-10T18:35:59.587Z,15.00
2023-04-10T18:38:26.899Z,14.90
2023-04-10T18:40:59.715Z,14.90
2023-04-10T18:43:29.741Z,14.90
2023-04-10T18:45:56.968Z,14.90
2023-04-10T18:48:23.730Z,14.80
2023-04-10T18:50:53.316Z,14.70
2023-04-10T18:53:21.233Z,14.70
2023-04-10T18:55:51.942Z,14.70
2023-04-10T18:58:22.577Z,14.70
2023-04-10T19:00:49.596Z,14.70
2023-04-10T19:03:16.617Z,14.60
2023-04-10T19:05:43.642Z,14.70
2023-04-10T19:08:14.160Z,14.60
2023-04-10T19:10:42.115Z,14.60
2023-04-10T19:13:11.553Z,14.50
2023-04-10T19:15:42.440Z,14.50
2023-04-10T19:18:09.292Z,14.60
2023-04-10T19:20:52.451Z,14.70
2023-04-10T19:23:21.153Z,14.60
2023-04-10T19:25:54.947Z,14.50
2023-04-10T19:28:23.647Z,14.50
2023-04-10T19:30:50.488Z,14.80
2023-04-10T19:33:17.411Z,14.70
2023-04-10T19:35:44.242Z,14.70
2023-04-10T19:38:11.063Z,14.70
2023-04-10T19:40:37.778Z,14.70
2023-04-10T19:43:04.392Z,14.70
2023-04-10T19:45:32.907Z,14.80
2023-04-10T19:48:00.157Z,14.80
2023-04-10T19:50:29.474Z,14.90
2023-04-10T19:52:56.527Z,15.00
2023-04-10T19:55:23.470Z,15.00
2023-04-10T19:57:50.668Z,15.00
2023-04-10T20:00:17.844Z,15.10
2023-04-10T20:02:44.771Z,15.20
2023-04-10T20:05:11.645Z,15.20
2023-04-10T20:07:38.390Z,15.20
2023-04-10T20:10:05.424Z,15.10
2023-04-10T20:12:33.167Z,16.20
2023-04-10T20:15:00.603Z,15.20
2023-04-10T20:17:27.843Z,15.30
2023-04-10T20:19:54.599Z,15.40
2023-04-10T20:22:21.324Z,15.50
2023-04-10T20:24:47.962Z,15.50
2023-04-10T20:27:17.930Z,15.60
2023-04-10T20:29:44.564Z,15.60
2023-04-10T20:32:11.191Z,15.60
2023-04-10T20:34:38.167Z,15.50
2023-04-10T20:37:05.774Z,15.50
2023-04-10T20:39:33.614Z,15.40
2023-04-10T20:42:00.273Z,15.50
2023-04-10T20:44:27.019Z,15.50
2023-04-10T20:46:53.802Z,15.50
2023-04-10T20:49:20.451Z,15.50
2023-04-10T20:51:47.373Z,15.50
2023-04-10T20:54:14.099Z,15.50
2023-04-10T20:56:43.676Z,15.50
2023-04-10T20:59:11.199Z,15.50
2023-04-10T21:01:38.343Z,15.40
2023-04-10T21:04:05.639Z,15.50
2023-04-10T21:06:33.509Z,15.50
2023-04-10T21:09:00.417Z,15.50
2023-04-10T21:11:27.469Z,15.50
2023-04-10T21:13:54.473Z,15.50
2023-04-10T21:16:21.210Z,15.40
2023-04-10T21:18:48.017Z,15.40
2023-04-10T21:21:14.911Z,15.40
2023-04-10T21:23:41.526Z,15.40
2023-04-10T21:26:08.336Z,15.50
2023-04-10T21:28:35.036Z,15.50
2023-04-10T21:31:01.729Z,15.50
2023-04-10T21:33:28.395Z,15.50
2023-04-10T21:35:55.505Z,15.50
2023-04-10T21:38:23.522Z,15.50
2023-04-10T21:40:51.315Z,15.40
2023-04-10T21:43:18.262Z,15.10
2023-04-10T21:45:44.894Z,15.00
2023-04-10T21:48:11.875Z,14.80
2023-04-10T21:50:38.552Z,14.80
2023-04-10T21:53:05.244Z,14.70
2023-04-10T21:55:31.854Z,14.60
2023-04-10T21:57:58.452Z,14.60
2023-04-10T22:00:25.194Z,14.50
2023-04-10T22:02:52.222Z,14.40
2023-04-10T22:05:19.260Z,14.40
2023-04-10T22:07:45.943Z,14.40
2023-04-10T22:10:12.613Z,14.40
2023-04-10T22:12:39.274Z,14.30
2023-04-10T22:15:07.825Z,14.20
2023-04-10T22:17:34.628Z,14.10
2023-04-10T22:20:01.701Z,14.00
2023-04-10T22:22:28.306Z,13.90
2023-04-10T22:24:55.044Z,14.00
2023-04-10T22:27:23.359Z,14.00
2023-04-10T22:30:02.161Z,13.80
2023-04-10T22:32:30.336Z,13.70
2023-04-10T22:34:58.852Z,13.60
2023-04-10T22:37:25.865Z,13.30
2023-04-10T22:39:52.791Z,13.00
2023-04-10T22:42:19.399Z,13.00
2023-04-10T22:44:45.998Z,12.80
2023-04-10T22:47:12.659Z,12.70
2023-04-10T22:49:39.298Z,12.60
2023-04-10T22:52:05.903Z,12.60
2023-04-10T22:54:32.532Z,12.50
2023-04-10T22:56:59.346Z,12.50
2023-04-10T22:59:26.013Z,12.40
2023-04-10T23:01:52.669Z,12.40
2023-04-10T23:04:19.456Z,12.50
2023-04-10T23:06:46.074Z,12.50
2023-04-10T23:09:12.923Z,12.50
2023-04-10T23:11:39.511Z,12.50
2023-04-10T23:14:06.160Z,12.40
2023-04-10T23:16:32.800Z,12.40
2023-04-10T23:18:59.540Z,12.40
2023-04-10T23:21:27.123Z,12.20
2023-04-10T23:23:53.777Z,12.20
2023-04-10T23:26:20.768Z,12.20
2023-04-10T23:28:47.611Z,12.30
2023-04-10T23:31:14.542Z,12.40
2023-04-10T23:33:41.322Z,12.40
2023-04-10T23:36:08.322Z,12.50
2023-04-10T23:38:35.100Z,12.40
2023-04-10T23:41:02.910Z,12.20
2023-04-10T23:43:29.553Z,12.30
2023-04-10T23:45:56.242Z,12.50
2023-04-10T23:48:22.958Z,12.40
2023-04-10T23:50:49.573Z,12.40
2023-04-10T23:53:16.242Z,12.40
2023-04-10T23:55:43.191Z,12.20
2023-04-10T23:58:10.061Z,12.10
